Time;durP1;ratioP1;P1;durP2;ratioP2;P2;SDS_P1;SDS_P2;PMS_P1;PMS_P2;Temp;Humidity;BMP_temperature;BMP_pressure;BME280_temperature;BME280_humidity;BME280_pressure;Samples;Min_cycle;Max_cycle;Signal;HPM_P1;HPM_P2
2021/12/02 00:02:21;;;;;;;100.90;50.20;;;7.00;98.70;;;;;;5033162;28;20029;-57
2021/12/02 00:04:48;;;;;;;101.47;49.67;;;7.10;98.50;;;;;;5033161;28;20021;-55
2021/12/02 00:07:14;;;;;;;91.88;47.10;;;6.90;99.80;;;;;;5032947;28;20476;-58
2021/12/02 00:09:40;;;;;;;82.60;43.88;;;6.90;99.80;;;;;;5034215;28;20026;-58
2021/12/02 00:12:07;;;;;;;74.30;40.10;;;7.00;99.70;;;;;;5037429;28;20017;-58
2021/12/02 00:14:45;;;;;;;81.13;42.72;;;7.10;98.80;;;;;;5036738;28;20460;-58
2021/12/02 00:17:21;;;;;;;78.43;42.33;;;7.10;98.80;;;;;;5037183;28;20037;-58
2021/12/02 00:22:40;;;;;;;77.82;41.42;;;7.10;98.50;;;;;;5037218;28;20056;-58
2021/12/02 00:25:06;;;;;;;106.47;50.97;;;7.10;98.40;;;;;;5036793;28;20021;-56
2021/12/02 00:27:34;;;;;;;94.85;48.42;;;7.10;98.30;;;;;;5036657;28;20387;-58
2021/12/02 00:29:59;;;;;;;103.32;49.78;;;6.90;99.10;;;;;;5036783;28;20025;-57
2021/12/02 00:32:27;;;;;;;98.57;50.05;;;6.90;99.20;;;;;;5036931;28;20139;-58
2021/12/02 00:34:55;;;;;;;110.20;56.28;;;6.90;99.20;;;;;;5036865;28;20463;-57
2021/12/02 00:37:21;;;;;;;84.57;43.30;;;6.80;99.70;;;;;;5036540;28;20053;-56
2021/12/02 00:39:47;;;;;;;103.18;51.05;;;6.80;99.70;;;;;;5036535;28;20017;-56
2021/12/02 00:42:14;;;;;;;80.75;45.58;;;6.90;99.70;;;;;;5036658;28;20059;-55
2021/12/02 00:44:40;;;;;;;82.25;42.80;;;6.90;99.80;;;;;;5036902;28;20017;-56
2021/12/02 00:47:08;;;;;;;89.00;45.22;;;7.00;99.60;;;;;;5036335;28;20391;-57
2021/12/02 00:49:33;;;;;;;88.18;46.80;;;7.00;99.30;;;;;;5036386;28;20029;-55
2021/12/02 00:52:00;;;;;;;90.70;48.15;;;7.10;99.30;;;;;;5036603;28;20021;-58
2021/12/02 00:54:27;;;;;;;84.22;43.35;;;7.10;99.20;;;;;;5036236;28;20072;-55
2021/12/02 00:56:54;;;;;;;84.03;42.95;;;7.10;99.30;;;;;;5036254;28;20017;-56
2021/12/02 00:59:21;;;;;;;103.85;51.35;;;7.10;99.30;;;;;;5036546;28;20033;-57
2021/12/02 01:01:48;;;;;;;102.20;50.15;;;7.10;99.30;;;;;;5036086;28;20029;-58
2021/12/02 01:04:21;;;;;;;110.60;54.63;;;7.00;99.90;;;;;;5036341;28;20087;-57
2021/12/02 01:06:47;;;;;;;115.28;58.20;;;6.90;99.90;;;;;;5036112;28;20022;-56
2021/12/02 01:09:13;;;;;;;105.10;53.78;;;6.80;99.90;;;;;;5035925;28;20525;-56
2021/12/02 01:11:39;;;;;;;120.50;61.17;;;6.80;99.90;;;;;;5035948;28;20028;-56
2021/12/02 01:14:06;;;;;;;109.30;54.92;;;6.70;99.90;;;;;;5035937;28;20052;-57
2021/12/02 01:16:32;;;;;;;94.43;47.90;;;6.50;99.90;;;;;;5036138;28;20029;-58
2021/12/02 01:18:58;;;;;;;92.38;48.45;;;6.50;99.90;;;;;;5035958;28;20055;-57
2021/12/02 01:21:26;;;;;;;98.57;50.92;;;6.60;99.90;;;;;;5035203;28;20025;-56
2021/12/02 01:23:57;;;;;;;85.53;44.22;;;6.60;99.90;;;;;;5035988;28;20422;-55
2021/12/02 01:26:22;;;;;;;104.55;50.70;;;6.60;99.90;;;;;;5035691;28;20021;-53
2021/12/02 01:28:49;;;;;;;75.93;39.83;;;6.70;99.90;;;;;;5035953;28;20563;-56
2021/12/02 01:31:15;;;;;;;82.28;43.15;;;6.70;99.90;;;;;;5035832;28;20112;-58
2021/12/02 01:33:45;;;;;;;84.70;44.35;;;6.80;99.90;;;;;;5035633;28;20101;-54
2021/12/02 01:36:11;;;;;;;72.35;37.17;;;6.90;99.90;;;;;;5035662;28;20028;-55
2021/12/02 01:38:37;;;;;;;74.95;39.92;;;6.80;99.90;;;;;;5035420;28;20121;-57
2021/12/02 01:41:04;;;;;;;60.85;34.67;;;6.80;99.90;;;;;;5035262;28;20045;-56
2021/12/02 01:43:49;;;;;;;65.57;35.45;;;6.80;99.90;;;;;;5035526;28;20478;-59
2021/12/02 01:46:17;;;;;;;55.47;31.55;;;6.90;99.90;;;;;;5035499;28;20088;-58
2021/12/02 01:48:48;;;;;;;51.50;29.15;;;6.90;99.90;;;;;;5035552;28;20037;-57
2021/12/02 01:51:17;;;;;;;53.72;28.27;;;7.00;99.90;;;;;;5035216;28;20065;-57
2021/12/02 01:53:42;;;;;;;60.38;31.98;;;7.10;99.90;;;;;;5035455;28;20032;-58
2021/12/02 01:56:14;;;;;;;58.67;31.45;;;7.10;99.90;;;;;;5035078;28;20459;-57
2021/12/02 01:58:50;;;;;;;68.70;33.65;;;7.00;99.90;;;;;;5034976;28;20029;-54
2021/12/02 02:01:26;;;;;;;59.42;32.22;;;7.10;99.90;;;;;;5035257;28;20079;-58
2021/12/02 02:03:54;;;;;;;68.38;34.80;;;7.00;99.90;;;;;;5034978;28;20021;-56
2021/12/02 02:06:37;;;;;;;73.22;37.22;;;7.00;99.90;;;;;;5034991;28;20025;-58
2021/12/02 02:09:05;;;;;;;63.60;35.17;;;7.00;99.90;;;;;;5034472;28;20476;-56
2021/12/02 02:11:31;;;;;;;76.10;38.30;;;6.90;99.90;;;;;;5034943;28;20033;-54
2021/12/02 02:13:58;;;;;;;76.53;38.40;;;6.90;99.90;;;;;;5035090;28;20018;-57
2021/12/02 02:16:25;;;;;;;63.90;34.42;;;7.00;99.90;;;;;;5034683;28;20468;-57
2021/12/02 02:18:51;;;;;;;71.07;35.45;;;6.90;99.90;;;;;;5035171;28;20410;-53
2021/12/02 02:21:19;;;;;;;59.70;31.42;;;6.90;99.90;;;;;;5034955;28;20021;-58
2021/12/02 02:24:19;;;;;;;66.88;35.22;;;6.90;99.90;;;;;;5034447;28;20021;-58
2021/12/02 02:26:38;;;;;;;84.22;42.08;;;7.00;99.90;;;;;;5034377;28;20034;-58
2021/12/02 02:29:06;;;;;;;59.90;33.10;;;6.90;99.90;;;;;;5034651;28;20064;-57
2021/12/02 02:31:33;;;;;;;59.35;29.52;;;6.80;99.90;;;;;;5034795;28;20044;-58
2021/12/02 02:33:59;;;;;;;56.22;31.45;;;6.90;99.90;;;;;;5034538;28;20013;-58
2021/12/02 02:36:29;;;;;;;67.05;34.58;;;6.90;99.90;;;;;;5034195;28;20073;-55
2021/12/02 02:38:59;;;;;;;61.90;32.50;;;6.90;99.90;;;;;;5034187;28;20025;-56
2021/12/02 02:41:28;;;;;;;59.45;31.58;;;6.90;99.90;;;;;;5034624;28;20084;-55
2021/12/02 02:43:57;;;;;;;65.78;36.20;;;7.00;99.90;;;;;;5034459;28;20406;-57
2021/12/02 02:46:24;;;;;;;76.15;40.70;;;6.90;99.90;;;;;;5034221;28;20040;-57
2021/12/02 02:48:50;;;;;;;94.70;46.30;;;6.90;99.90;;;;;;5034187;28;20037;-59
2021/12/02 02:51:16;;;;;;;100.00;51.22;;;6.80;99.90;;;;;;5034019;28;20105;-58
2021/12/02 02:53:42;;;;;;;87.32;47.30;;;6.70;99.90;;;;;;5034547;28;20055;-55
2021/12/02 02:56:12;;;;;;;83.50;43.25;;;6.60;99.90;;;;;;5034087;28;20033;-55
2021/12/02 03:02:00;;;;;;;72.88;37.50;;;6.70;99.90;;;;;;5033734;28;20034;-57
2021/12/02 03:17:07;;;;;;;43.40;24.40;;;7.00;99.90;;;;;;5033728;28;20021;-56
2021/12/02 03:19:34;;;;;;;42.90;24.20;;;7.00;99.90;;;;;;5033827;28;20029;-57
2021/12/02 03:22:00;;;;;;;36.00;21.52;;;7.00;99.90;;;;;;5033533;28;20052;-55
2021/12/02 03:24:26;;;;;;;42.50;22.65;;;7.00;99.90;;;;;;5032358;28;20025;-55
2021/12/02 03:26:52;;;;;;;37.13;20.65;;;7.00;99.90;;;;;;5033396;28;20056;-57
2021/12/02 03:29:18;;;;;;;39.60;21.65;;;7.00;99.90;;;;;;5033471;28;20379;-57
2021/12/02 03:31:44;;;;;;;41.20;22.73;;;6.90;99.90;;;;;;5033586;28;20025;-53
2021/12/02 03:34:10;;;;;;;31.90;19.55;;;6.90;99.90;;;;;;5033526;28;20026;-56
2021/12/02 03:36:37;;;;;;;31.80;18.77;;;6.80;99.90;;;;;;5033189;28;20140;-55
2021/12/02 03:39:05;;;;;;;34.92;19.98;;;6.90;99.90;;;;;;5033383;28;20530;-55
2021/12/02 03:41:36;;;;;;;40.60;22.88;;;6.90;99.90;;;;;;5033429;28;20025;-57
2021/12/02 03:44:01;;;;;;;38.22;20.48;;;6.80;99.90;;;;;;5032893;28;20026;-56
2021/12/02 03:46:28;;;;;;;43.60;23.98;;;6.80;99.90;;;;;;5033828;28;20155;-57
2021/12/02 03:48:55;;;;;;;37.60;19.75;;;6.80;99.90;;;;;;5033188;28;20061;-58
2021/12/02 03:51:22;;;;;;;37.10;21.08;;;6.80;99.90;;;;;;5033226;28;20067;-55
2021/12/02 03:53:48;;;;;;;37.03;18.88;;;6.80;99.90;;;;;;5033207;28;20518;-55
2021/12/02 03:56:14;;;;;;;29.38;17.52;;;6.80;99.90;;;;;;5033276;28;20111;-56
2021/12/02 03:58:42;;;;;;;36.97;18.98;;;6.90;99.90;;;;;;5033106;28;20044;-58
2021/12/02 04:01:09;;;;;;;30.02;15.98;;;6.80;99.90;;;;;;5033031;28;20108;-58
2021/12/02 04:03:35;;;;;;;30.95;16.60;;;6.90;99.90;;;;;;5033095;28;20022;-56
2021/12/02 04:06:02;;;;;;;30.95;17.02;;;6.90;99.90;;;;;;5033083;28;20025;-56
2021/12/02 04:08:38;;;;;;;38.47;21.15;;;6.80;99.90;;;;;;5033127;28;20033;-58
2021/12/02 04:16:30;;;;;;;36.08;17.02;;;6.50;99.90;;;;;;5012066;28;20431;-57
2021/12/02 04:18:56;;;;;;;33.78;19.42;;;6.50;99.90;;;;;;5032981;28;20076;-56
2021/12/02 04:21:22;;;;;;;37.53;19.73;;;6.60;99.90;;;;;;5032776;28;20449;-56
2021/12/02 04:23:48;;;;;;;40.20;24.33;;;6.70;99.90;;;;;;5032704;28;20025;-58
2021/12/02 04:26:14;;;;;;;33.15;18.85;;;6.70;99.90;;;;;;5032910;28;20025;-58
2021/12/02 04:28:39;;;;;;;36.50;20.80;;;6.70;99.90;;;;;;5032885;28;20120;-56
2021/12/02 04:31:05;;;;;;;44.55;23.90;;;6.80;99.90;;;;;;5032749;28;20025;-58
2021/12/02 04:33:31;;;;;;;47.25;25.42;;;6.70;99.90;;;;;;5032950;28;20030;-59
2021/12/02 04:35:59;;;;;;;37.13;22.27;;;6.70;99.90;;;;;;5032330;28;20399;-56
2021/12/02 04:38:25;;;;;;;49.33;26.23;;;6.60;99.90;;;;;;5032888;28;20037;-56
2021/12/02 04:40:51;;;;;;;45.80;24.65;;;6.60;99.90;;;;;;5032591;28;20099;-57
2021/12/02 04:43:17;;;;;;;44.20;24.42;;;6.60;99.90;;;;;;5032184;28;20071;-52
2021/12/02 04:45:43;;;;;;;37.08;21.15;;;6.50;99.90;;;;;;5031389;28;20383;-58
2021/12/02 04:48:08;;;;;;;41.22;22.42;;;6.50;99.90;;;;;;5030449;28;20026;-58
2021/12/02 04:50:34;;;;;;;57.22;30.38;;;6.60;99.90;;;;;;5031854;28;20472;-57
2021/12/02 04:53:00;;;;;;;42.42;22.88;;;6.60;99.90;;;;;;5031983;28;20032;-56
2021/12/02 04:55:26;;;;;;;46.95;23.75;;;6.60;99.90;;;;;;5032412;28;20022;-57
2021/12/02 04:57:51;;;;;;;52.55;27.75;;;6.70;99.90;;;;;;5035462;28;20079;-56
2021/12/02 05:00:18;;;;;;;50.60;26.75;;;6.70;99.90;;;;;;5036272;28;20036;-58
2021/12/02 05:02:45;;;;;;;51.97;26.88;;;6.70;99.90;;;;;;5036196;28;20026;-57
2021/12/02 05:05:11;;;;;;;56.53;29.70;;;6.80;99.90;;;;;;5036204;28;20025;-58
2021/12/02 05:07:37;;;;;;;43.13;24.60;;;6.80;99.90;;;;;;5036016;28;20036;-57
2021/12/02 05:10:04;;;;;;;47.50;25.95;;;6.70;99.90;;;;;;5036191;28;20021;-58
2021/12/02 05:12:30;;;;;;;44.17;23.85;;;6.70;99.90;;;;;;5036010;28;20017;-58
2021/12/02 05:14:57;;;;;;;45.80;23.45;;;6.70;99.90;;;;;;5036262;28;20029;-56
2021/12/02 05:17:22;;;;;;;45.08;24.80;;;6.70;99.90;;;;;;5036026;28;20025;-56
2021/12/02 05:19:48;;;;;;;46.80;23.73;;;6.70;99.90;;;;;;5035812;28;20410;-59
2021/12/02 05:22:14;;;;;;;45.92;24.52;;;6.70;99.90;;;;;;5034256;28;20036;-56
2021/12/02 05:24:40;;;;;;;50.00;27.25;;;6.70;99.90;;;;;;5034155;28;20100;-57
2021/12/02 05:27:06;;;;;;;44.38;24.33;;;6.70;99.90;;;;;;5034108;28;20032;-58
2021/12/02 05:29:32;;;;;;;41.22;24.70;;;6.70;99.90;;;;;;5034307;28;20447;-57
2021/12/02 05:31:58;;;;;;;51.17;27.67;;;6.70;99.90;;;;;;5034180;28;20022;-58
2021/12/02 05:34:24;;;;;;;37.35;23.45;;;6.60;99.90;;;;;;5033605;28;20032;-59
2021/12/02 05:36:50;;;;;;;46.13;27.25;;;6.70;99.90;;;;;;5024722;28;20053;-55
2021/12/02 05:39:16;;;;;;;64.72;40.17;;;6.60;99.90;;;;;;5023985;28;20106;-57
2021/12/02 05:41:43;;;;;;;67.82;39.58;;;6.50;99.90;;;;;;5034970;28;20025;-57
2021/12/02 05:44:09;;;;;;;49.15;32.35;;;6.40;99.90;;;;;;5034926;28;20022;-54
2021/12/02 05:46:35;;;;;;;55.50;32.42;;;6.40;99.90;;;;;;5023780;28;20048;-58
2021/12/02 05:49:01;;;;;;;52.95;30.75;;;6.50;99.90;;;;;;5032222;28;20384;-58
2021/12/02 05:51:26;;;;;;;68.47;37.28;;;6.60;99.90;;;;;;5025336;28;20029;-55
2021/12/02 05:53:52;;;;;;;75.25;42.28;;;6.60;99.90;;;;;;5024866;28;20036;-58
2021/12/02 05:56:18;;;;;;;57.78;34.33;;;6.60;99.90;;;;;;5023780;28;20028;-57
2021/12/02 05:58:44;;;;;;;60.05;33.92;;;6.50;99.90;;;;;;5019126;28;20064;-57
2021/12/02 06:01:09;;;;;;;54.97;31.70;;;6.60;99.90;;;;;;5023596;28;20021;-59
2021/12/02 06:03:36;;;;;;;77.78;41.25;;;6.60;99.90;;;;;;5025398;28;20037;-55
2021/12/02 06:06:04;;;;;;;56.17;31.52;;;6.60;99.90;;;;;;5032963;28;20032;-56
2021/12/02 06:08:30;;;;;;;54.63;30.10;;;6.60;99.90;;;;;;5032785;28;20036;-56
2021/12/02 06:10:56;;;;;;;50.20;29.40;;;6.60;99.90;;;;;;5033160;28;20031;-57
2021/12/02 06:13:21;;;;;;;55.20;31.02;;;6.60;99.90;;;;;;5033217;28;20025;-56
2021/12/02 06:15:47;;;;;;;61.28;34.30;;;6.60;99.90;;;;;;5031876;28;20021;-59
2021/12/02 06:18:13;;;;;;;61.92;32.80;;;6.60;99.90;;;;;;5032019;28;20038;-57
2021/12/02 06:20:38;;;;;;;70.07;36.60;;;6.70;99.90;;;;;;5032772;28;20025;-56
2021/12/02 06:23:04;;;;;;;86.88;49.55;;;6.70;99.90;;;;;;5032886;28;20475;-59
2021/12/02 06:27:56;;;;;;;71.30;39.28;;;6.80;99.90;;;;;;5034788;28;20486;-56
2021/12/02 06:30:24;;;;;;;111.13;53.67;;;6.90;99.90;;;;;;5034493;28;20029;-59
2021/12/02 06:32:50;;;;;;;115.68;59.28;;;6.90;99.90;;;;;;5034421;28;20479;-57
2021/12/02 06:35:16;;;;;;;80.10;44.30;;;6.90;99.90;;;;;;5032908;28;20105;-57
2021/12/02 06:37:43;;;;;;;85.93;43.30;;;7.00;99.90;;;;;;5033577;28;20482;-58
2021/12/02 06:40:09;;;;;;;84.15;44.75;;;7.20;99.90;;;;;;5034252;28;20113;-56
2021/12/02 06:42:35;;;;;;;116.88;60.92;;;7.50;99.90;;;;;;5034487;28;20100;-57
2021/12/02 06:45:01;;;;;;;126.07;62.40;;;7.60;99.90;;;;;;5033809;28;20490;-62
2021/12/02 06:47:31;;;;;;;123.40;62.28;;;7.60;99.90;;;;;;5034117;28;20472;-55
2021/12/02 06:50:00;;;;;;;122.63;61.80;;;7.60;99.90;;;;;;5034147;28;20025;-59
2021/12/02 06:52:27;;;;;;;103.05;50.75;;;7.70;99.90;;;;;;5033568;28;20426;-59
2021/12/02 06:54:54;;;;;;;73.70;37.72;;;7.80;99.90;;;;;;5034014;28;20464;-58
2021/12/02 06:57:20;;;;;;;131.50;63.00;;;8.20;99.90;;;;;;5034109;28;20499;-54
2021/12/02 06:59:46;;;;;;;115.82;58.63;;;8.40;99.90;;;;;;5033875;28;20017;-59
2021/12/02 07:02:11;;;;;;;126.72;61.70;;;8.50;99.90;;;;;;5033886;28;20515;-59
2021/12/02 07:04:37;;;;;;;179.45;80.07;;;8.60;99.90;;;;;;5032493;28;20388;-58
2021/12/02 07:07:03;;;;;;;86.10;41.65;;;8.80;99.90;;;;;;5031679;28;20021;-58
2021/12/02 07:09:29;;;;;;;68.68;39.83;;;8.90;99.90;;;;;;5032458;28;20144;-58
2021/12/02 07:11:54;;;;;;;51.60;30.38;;;9.20;99.90;;;;;;5032459;28;20529;-59
2021/12/02 07:14:21;;;;;;;35.83;19.42;;;9.40;99.90;;;;;;5031905;28;20103;-58
2021/12/02 07:16:47;;;;;;;36.22;20.95;;;9.70;99.90;;;;;;5030862;28;20108;-57
2021/12/02 07:19:13;;;;;;;102.60;48.65;;;10.00;99.90;;;;;;5030441;28;20025;-59
2021/12/02 07:21:40;;;;;;;91.70;44.13;;;10.10;99.90;;;;;;5032997;28;20093;-59
2021/12/02 07:24:08;;;;;;;106.32;50.53;;;10.20;99.90;;;;;;5033097;28;20049;-58
2021/12/02 07:26:36;;;;;;;142.23;66.78;;;10.30;99.90;;;;;;5032979;28;20063;-59
2021/12/02 07:29:01;;;;;;;114.57;55.83;;;10.40;99.90;;;;;;5032695;28;20048;-59
2021/12/02 07:31:31;;;;;;;111.75;54.00;;;10.50;99.90;;;;;;5032565;28;20029;-59
2021/12/02 07:33:58;;;;;;;78.68;44.50;;;10.60;99.90;;;;;;5023472;28;20029;-58
2021/12/02 07:36:24;;;;;;;59.75;33.05;;;10.70;99.20;;;;;;5026847;28;20049;-59
2021/12/02 07:38:51;;;;;;;54.58;30.52;;;10.90;98.80;;;;;;5031299;28;20050;-59
2021/12/02 07:41:17;;;;;;;41.28;24.45;;;11.10;98.10;;;;;;5032157;28;20037;-57
2021/12/02 07:43:43;;;;;;;46.30;27.35;;;11.20;97.90;;;;;;5024169;28;20116;-58
2021/12/02 07:46:09;;;;;;;42.28;25.58;;;11.30;97.40;;;;;;5031140;28;20049;-58
2021/12/02 07:48:36;;;;;;;72.13;41.58;;;11.30;97.40;;;;;;5031140;28;20056;-58
2021/12/02 07:51:10;;;;;;;49.67;31.88;;;11.40;97.20;;;;;;5026712;28;20543;-59
2021/12/02 07:53:39;;;;;;;52.58;32.92;;;11.40;97.20;;;;;;5017684;28;20519;-58
2021/12/02 07:56:09;;;;;;;41.05;26.88;;;11.50;97.00;;;;;;5021088;28;20452;-58
2021/12/02 07:58:35;;;;;;;71.35;43.03;;;11.50;96.60;;;;;;5010110;28;20018;-58
2021/12/02 08:01:02;;;;;;;43.45;26.25;;;11.50;97.00;;;;;;5010855;28;20032;-61
2021/12/02 08:03:29;;;;;;;36.70;22.38;;;11.50;96.60;;;;;;5010468;28;20014;-61
2021/12/02 08:05:56;;;;;;;14.43;9.25;;;11.50;96.30;;;;;;5009855;28;20044;-64
2021/12/02 08:08:22;;;;;;;20.27;13.63;;;11.60;96.00;;;;;;5029496;28;20451;-60
2021/12/02 08:10:47;;;;;;;18.27;9.57;;;11.80;95.70;;;;;;5029197;28;20049;-60
2021/12/02 08:13:14;;;;;;;7.35;5.13;;;11.90;95.30;;;;;;5029399;28;20060;-62
2021/12/02 08:15:41;;;;;;;9.32;5.07;;;12.10;94.50;;;;;;5029631;28;20620;-58
2021/12/02 08:18:07;;;;;;;7.05;4.15;;;12.30;94.20;;;;;;5028930;28;20116;-62
2021/12/02 08:20:36;;;;;;;10.80;6.95;;;12.40;93.80;;;;;;5019805;28;20097;-59
2021/12/02 08:23:03;;;;;;;9.95;6.38;;;12.50;93.70;;;;;;5029957;28;20036;-63
2021/12/02 08:25:33;;;;;;;8.43;5.60;;;12.60;93.80;;;;;;5026709;28;20075;-61
2021/12/02 08:28:02;;;;;;;6.95;5.07;;;12.70;93.70;;;;;;5014487;28;20029;-63
2021/12/02 08:30:30;;;;;;;7.60;4.32;;;12.70;93.10;;;;;;5013529;28;20029;-64
2021/12/02 08:32:58;;;;;;;32.58;14.32;;;12.80;93.10;;;;;;5016672;28;20084;-61
2021/12/02 08:35:26;;;;;;;37.05;17.58;;;12.90;93.30;;;;;;5015848;28;20052;-57
2021/12/02 08:37:55;;;;;;;31.92;15.02;;;12.90;93.10;;;;;;4995720;28;20493;-59
2021/12/02 08:40:36;;;;;;;9.88;5.40;;;12.90;93.00;;;;;;4995663;28;20125;-60
2021/12/02 08:43:05;;;;;;;15.88;8.80;;;12.90;93.00;;;;;;4994736;28;20030;-64
2021/12/02 08:45:33;;;;;;;20.60;10.27;;;12.90;93.30;;;;;;4995556;28;20109;-60
2021/12/02 08:48:00;;;;;;;16.73;9.27;;;13.00;93.00;;;;;;4997292;28;20046;-60
2021/12/02 08:50:26;;;;;;;17.70;9.55;;;13.10;92.50;;;;;;4995751;28;20078;-58
2021/12/02 08:52:54;;;;;;;53.95;26.23;;;13.20;92.80;;;;;;4996594;28;20101;-61
2021/12/02 08:55:22;;;;;;;5.15;2.83;;;13.20;92.10;;;;;;4996441;28;20018;-60
2021/12/02 08:57:49;;;;;;;30.77;18.35;;;13.20;92.00;;;;;;4995833;28;20077;-66
2021/12/02 09:00:18;;;;;;;23.00;13.45;;;13.30;92.00;;;;;;4996632;28;20117;-60
2021/12/02 09:02:44;;;;;;;38.90;21.13;;;13.40;91.90;;;;;;4995174;28;20484;-61
2021/12/02 09:05:10;;;;;;;36.28;20.40;;;13.50;91.80;;;;;;4992989;28;20026;-61
2021/12/02 09:07:36;;;;;;;16.38;8.15;;;13.50;91.90;;;;;;5004634;28;20032;-62
2021/12/02 09:10:03;;;;;;;26.98;14.70;;;13.50;91.30;;;;;;5012193;28;20022;-62
2021/12/02 09:12:29;;;;;;;14.63;8.40;;;13.60;91.60;;;;;;5013768;28;20026;-64
2021/12/02 09:14:55;;;;;;;52.55;30.25;;;13.70;91.10;;;;;;5013736;28;20105;-59
2021/12/02 09:17:21;;;;;;;28.27;14.95;;;13.70;91.40;;;;;;5014465;28;20090;-61
2021/12/02 09:19:47;;;;;;;16.40;8.05;;;13.80;90.90;;;;;;5014694;28;20018;-59
2021/12/02 09:22:14;;;;;;;18.77;10.38;;;13.90;90.60;;;;;;5015525;28;20040;-60
2021/12/02 09:24:39;;;;;;;29.70;18.00;;;13.80;90.90;;;;;;5015671;28;20498;-61
2021/12/02 09:27:06;;;;;;;34.53;18.60;;;13.80;91.00;;;;;;5015850;28;20022;-60
2021/12/02 09:29:31;;;;;;;25.88;14.73;;;13.80;90.80;;;;;;5015108;28;20032;-59
2021/12/02 09:31:58;;;;;;;11.73;6.82;;;13.80;90.60;;;;;;5014340;28;20105;-61
2021/12/02 09:34:25;;;;;;;17.67;10.40;;;13.80;90.50;;;;;;5015042;28;20026;-61
2021/12/02 09:36:51;;;;;;;19.60;11.85;;;13.80;90.60;;;;;;5014706;28;20096;-59
2021/12/02 09:39:17;;;;;;;13.50;8.18;;;13.90;90.70;;;;;;5009128;28;20464;-60
2021/12/02 09:41:46;;;;;;;20.00;12.38;;;13.90;90.70;;;;;;5012435;28;20463;-63
2021/12/02 09:44:14;;;;;;;30.30;16.45;;;14.00;90.70;;;;;;5009632;28;20018;-66
2021/12/02 09:46:40;;;;;;;23.48;14.45;;;14.10;90.40;;;;;;5004198;28;20058;-60
2021/12/02 09:49:09;;;;;;;52.38;31.90;;;14.20;90.30;;;;;;5009306;28;20061;-63
2021/12/02 09:52:02;;;;;;;11.95;7.45;;;14.20;90.50;;;;;;5010732;28;20022;-59
2021/12/02 09:54:36;;;;;;;13.25;8.00;;;14.20;90.20;;;;;;5011591;28;20054;-60
2021/12/02 09:57:05;;;;;;;14.60;9.10;;;14.20;90.10;;;;;;5011109;28;20100;-59
2021/12/02 09:59:46;;;;;;;21.95;9.48;;;14.40;90.20;;;;;;5010442;28;20129;-59
2021/12/02 10:02:17;;;;;;;16.73;8.70;;;14.50;90.00;;;;;;5010311;28;20022;-60
2021/12/02 10:04:52;;;;;;;18.63;9.07;;;14.60;89.40;;;;;;5011349;28;20034;-60
2021/12/02 10:10:03;;;;;;;25.48;14.40;;;14.70;90.00;;;;;;5010573;28;20450;-60
2021/12/02 10:12:33;;;;;;;5.28;4.15;;;15.00;89.10;;;;;;5010637;28;20049;-60
2021/12/02 10:15:02;;;;;;;6.47;4.15;;;15.10;88.10;;;;;;5009214;28;20025;-59
2021/12/02 10:17:39;;;;;;;27.27;16.65;;;15.00;88.00;;;;;;5008873;28;20034;-60
2021/12/02 10:23:25;;;;;;;11.43;8.30;;;15.30;87.90;;;;;;5011636;28;20068;-60
2021/12/02 10:26:04;;;;;;;8.75;5.97;;;15.50;87.40;;;;;;5007809;28;20045;-59
2021/12/02 10:28:37;;;;;;;7.47;5.78;;;15.80;87.40;;;;;;5011644;28;20038;-59
2021/12/02 10:31:05;;;;;;;6.75;4.60;;;16.00;85.80;;;;;;5012879;28;20049;-60
2021/12/02 10:33:34;;;;;;;9.30;6.60;;;16.20;85.50;;;;;;5012916;28;20029;-59
2021/12/02 10:36:03;;;;;;;8.30;5.50;;;16.20;85.00;;;;;;5004061;28;20053;-60
2021/12/02 10:38:32;;;;;;;10.73;5.72;;;16.30;85.40;;;;;;5006214;28;20546;-58
2021/12/02 10:41:03;;;;;;;17.88;10.15;;;16.30;83.40;;;;;;5010484;28;20030;-61
2021/12/02 10:43:28;;;;;;;26.02;13.90;;;16.20;83.90;;;;;;5008112;28;20032;-63
2021/12/02 10:46:13;;;;;;;28.52;14.52;;;16.30;84.60;;;;;;5013707;28;20025;-61
2021/12/02 10:48:49;;;;;;;25.42;13.73;;;16.40;84.20;;;;;;5013205;28;20069;-61
2021/12/02 10:51:52;;;;;;;79.63;39.67;;;16.60;85.30;;;;;;5011328;28;20076;-61
2021/12/02 10:54:33;;;;;;;40.83;23.30;;;16.70;83.30;;;;;;5011048;28;20503;-62
2021/12/02 10:57:08;;;;;;;32.17;19.30;;;16.80;83.00;;;;;;5012580;28;20113;-60
2021/12/02 10:59:42;;;;;;;35.08;21.58;;;16.70;82.20;;;;;;5011560;28;20034;-62
2021/12/02 11:02:19;;;;;;;21.85;12.32;;;16.70;82.60;;;;;;5004202;28;20038;-60
2021/12/02 11:04:49;;;;;;;32.20;17.13;;;16.70;82.40;;;;;;5009003;28;20036;-62
2021/12/02 11:07:28;;;;;;;26.65;15.70;;;16.60;83.40;;;;;;5011467;28;20037;-61
2021/12/02 11:09:56;;;;;;;25.35;13.57;;;16.70;83.60;;;;;;5013510;28;20072;-60
2021/12/02 11:12:23;;;;;;;21.25;13.35;;;16.80;82.80;;;;;;5013339;28;20032;-60
2021/12/02 11:14:59;;;;;;;22.27;12.13;;;16.90;85.80;;;;;;5012611;28;20022;-61
2021/12/02 11:17:29;;;;;;;18.58;11.77;;;17.20;83.10;;;;;;5011608;28;20033;-60
2021/12/02 11:19:56;;;;;;;19.23;12.13;;;17.20;84.30;;;;;;5012011;28;20030;-60
2021/12/02 11:22:25;;;;;;;15.15;9.40;;;17.20;80.80;;;;;;5012427;28;20025;-60
2021/12/02 11:24:52;;;;;;;15.85;10.63;;;17.10;81.10;;;;;;5012524;28;20472;-61
2021/12/02 11:27:26;;;;;;;15.75;10.80;;;17.10;81.80;;;;;;5012756;28;20041;-59
2021/12/02 11:29:51;;;;;;;10.70;6.28;;;17.10;81.10;;;;;;5011826;28;20018;-60
2021/12/02 11:32:26;;;;;;;12.98;8.60;;;17.10;79.80;;;;;;5012144;28;20057;-63
2021/12/02 11:35:07;;;;;;;38.22;22.20;;;17.00;79.60;;;;;;5005918;28;20160;-64
2021/12/02 11:37:37;;;;;;;24.80;14.18;;;16.90;81.60;;;;;;5007533;28;20103;-62
2021/12/02 11:40:07;;;;;;;23.15;14.93;;;16.90;80.60;;;;;;5009910;28;20376;-63
2021/12/02 11:42:37;;;;;;;13.98;9.93;;;16.80;80.60;;;;;;5010853;28;20121;-64
2021/12/02 11:45:03;;;;;;;16.08;10.20;;;16.80;80.10;;;;;;5012973;28;20034;-63
2021/12/02 11:47:29;;;;;;;19.20;11.80;;;16.80;80.60;;;;;;5008618;28;20455;-60
2021/12/02 11:49:55;;;;;;;11.45;5.53;;;16.90;80.90;;;;;;4998152;28;20093;-63
2021/12/02 11:52:21;;;;;;;24.35;16.10;;;17.10;78.70;;;;;;5010401;28;20052;-64
2021/12/02 11:54:47;;;;;;;23.63;15.82;;;17.20;81.60;;;;;;5011317;28;20471;-62
2021/12/02 11:57:13;;;;;;;13.07;9.35;;;17.50;80.50;;;;;;5011414;28;20018;-65
2021/12/02 11:59:38;;;;;;;16.73;11.23;;;17.90;76.70;;;;;;5012037;28;20388;-66
2021/12/02 12:02:04;;;;;;;7.60;4.65;;;18.20;77.20;;;;;;5011642;28;20026;-64
2021/12/02 12:04:31;;;;;;;10.23;6.38;;;18.40;74.40;;;;;;5001439;28;20112;-61
2021/12/02 12:07:14;;;;;;;4.57;3.00;;;18.60;74.60;;;;;;5016131;28;20022;-60
2021/12/02 12:09:40;;;;;;;3.83;2.22;;;18.40;73.10;;;;;;5017081;28;20037;-61
2021/12/02 12:12:07;;;;;;;4.15;2.63;;;18.20;72.70;;;;;;5017032;28;20030;-61
2021/12/02 12:14:41;;;;;;;11.10;6.57;;;18.20;73.00;;;;;;5014794;28;20383;-62
2021/12/02 12:17:15;;;;;;;10.48;5.28;;;18.10;73.90;;;;;;5001625;28;20022;-56
2021/12/02 12:19:47;;;;;;;12.27;7.55;;;18.20;74.10;;;;;;4996345;28;20018;-60
2021/12/02 12:22:32;;;;;;;8.13;4.10;;;18.10;74.00;;;;;;5014634;28;20022;-60
2021/12/02 12:25:03;;;;;;;7.22;4.93;;;18.00;72.90;;;;;;5012406;28;20026;-60
2021/12/02 12:27:31;;;;;;;6.72;4.65;;;17.80;73.70;;;;;;5013734;28;20511;-59
2021/12/02 12:30:10;;;;;;;9.75;5.80;;;17.90;73.70;;;;;;5014148;28;20076;-61
2021/12/02 12:32:49;;;;;;;9.25;4.88;;;17.90;73.90;;;;;;5014722;28;20033;-60
2021/12/02 12:38:29;;;;;;;8.20;5.53;;;17.80;73.80;;;;;;5015223;28;20046;-59
2021/12/02 12:41:01;;;;;;;10.32;6.88;;;17.80;73.40;;;;;;5014740;28;20037;-61
2021/12/02 12:43:32;;;;;;;12.65;7.05;;;17.70;73.70;;;;;;5013893;28;20022;-61
2021/12/02 12:46:11;;;;;;;13.20;7.38;;;17.80;73.10;;;;;;5012550;28;20022;-61
2021/12/02 12:48:37;;;;;;;18.10;9.43;;;17.70;73.00;;;;;;5014097;28;20030;-60
2021/12/02 12:51:26;;;;;;;10.27;6.18;;;17.70;73.40;;;;;;5014901;28;20018;-58
2021/12/02 12:53:54;;;;;;;11.20;7.05;;;17.70;72.70;;;;;;5015523;28;20018;-60
2021/12/02 12:56:40;;;;;;;9.77;5.50;;;17.70;74.60;;;;;;5015323;28;20022;-61
2021/12/02 12:59:12;;;;;;;12.27;8.48;;;17.70;73.10;;;;;;5016003;28;20068;-60
2021/12/02 13:01:40;;;;;;;13.95;8.20;;;17.60;73.20;;;;;;5014149;28;20109;-59
2021/12/02 13:04:10;;;;;;;18.20;11.55;;;17.50;73.70;;;;;;5014215;28;20372;-59
2021/12/02 13:06:53;;;;;;;17.15;11.10;;;17.50;75.00;;;;;;5013864;28;20522;-58
2021/12/02 13:09:42;;;;;;;14.07;8.80;;;17.50;73.30;;;;;;5004613;28;20412;-59
2021/12/02 13:12:12;;;;;;;17.10;10.95;;;17.50;73.40;;;;;;5000196;28;20030;-60
2021/12/02 13:14:39;;;;;;;13.05;9.20;;;17.40;74.60;;;;;;5014655;28;20495;-58
2021/12/02 13:17:46;;;;;;;13.27;9.13;;;17.40;73.90;;;;;;5011243;28;20034;-59